Airfield :
LOGIN :

Register | Disclaimer

   EN    FR    IT 

 










Legend :    VFR   Marginal VFR   IFR   Intensive IFR   Very Intensive IFR
Visi :
Ceiling :
>= 8 km
>= 3000ft
5 to 8 km
1000 to 3000 ft
1500m to 5 km
500 to 1000 ft
800 to 1500m
200 to 500 ft
< 800m
< 200 ft
Symbols :   Thunderstorms  Fog  Heavy snow  Heavy precipitations  Wind > 20 kt
SIGMETs :     Misc.  Thunderstorms  Icing  Turbulence  Mountain Waves  Volcanic Ashes






- Airport Elevation : 479 ft
- IATA code : DOL


LFRG - Deauville

CURRENT METAR :
  • 180330Z AUTO 21015KT 9999 -RA FEW012/// SCT043/// BKN050/// ///CB 09/08 Q1004

EXPIRED METARs :
  • 180300Z AUTO 20012KT 170V230 9999 2900 +RA SCT017/// BKN034/// BKN047/// ///CB 12/10 Q1003
  • 180230Z AUTO 19010KT 160V220 9999 BKN015/// BKN054/// BKN074/// ///TCU 12/10 Q1003
  • 180200Z AUTO 18008KT 9999 BKN014 OVC019 12/11 Q1004
  • 180130Z AUTO 18009KT 9999 BKN016 OVC023 12/11 Q1004
  • 180100Z AUTO 19009KT 170V230 9999 FEW011/// BKN017/// BKN035/// ///TCU 12/11 Q1005

Expired Forecast.
ATIS : +33 2 31 65 65 36



MET'MAP, your aeronautical weather chart ! - Copyright ORBIFLY December 2007 - Disclaimer

ORBIFLY MET'MAP TEAM :

Programming & Development : Alexandra Zaïnal
Concept & Development : Baudouin d'Aumeries
Co-Development & Prog : Marc-Olivier Méhu
Technical & hardware support : Manuel Goepfert

Contact : metmap@orbifly.com




SOURCES & CREDITS :

   NOAA